San Patricio — WCX6675 — position and weather

sailwx.info

Track history (hours):
 
Tides and Currents Weather Stations Pressure Air Temp Water Temp Dewpoint Dewpoint Depression Visibility Wind Speed Wind Dir Waves Ship Positions

San Patricio

Owner: BUFFALO MARINE SERVICE INC, HOUSTON, TX. More information available from US FCC via Universal Licensing System and Coast Guard Vessel Documentation Center.

Last reported at 2017-Nov-23 18:21 UTC. Time now 2017-Nov-24 07:46 UTC.
Position N 29°32' W 094°54'.

Length 30 m; draft 3.1 m.

Type: Tug. MMSI: 366941830.

Date/timePositionNaut miles runAvg speedWind from/ knotsBaromVisibWave heightAir tempDewpointWater temp
2017-Nov-23 18:21N 29°32' W 094°54'3 7.6
2017-Nov-23 18:00N 29°34' W 094°55'4 7.4
2017-Nov-23 17:29N 29°37' W 094°58'4 7.6
2017-Nov-23 17:00N 29°41' W 094°59'1 2.1
2017-Nov-23 16:23N 29°41' W 095°00'0 0.0
2017-Nov-23 15:58N 29°41' W 095°00'0 0.0
2017-Nov-23 15:29N 29°41' W 095°00'0 0.0
2017-Nov-23 14:59N 29°41' W 095°00'0 0.0
2017-Nov-23 13:45N 29°41' W 095°00'0 0.0
2017-Nov-23 13:30N 29°41' W 095°00'0 0.0
2017-Nov-23 12:59N 29°41' W 095°00'1 2.4
2017-Nov-23 12:30N 29°41' W 094°59'5 7.0
2017-Nov-23 11:48N 29°44' W 095°03'3 0.3
2017-Nov-23 02:14N 29°46' W 095°06'  
2017-Nov-18 15:51N 29°44' W 095°03'2 6.5
2017-Nov-18 15:29N 29°43' W 095°01'2 5.1
2017-Nov-18 15:00N 29°41' W 094°60'0 0.7
2017-Nov-18 14:30N 29°41' W 095°00'0 0.0
2017-Nov-18 14:00N 29°41' W 095°00'0 0.0
2017-Nov-18 13:30N 29°41' W 095°00'0 0.0
2017-Nov-18 13:00N 29°41' W 095°00'0 0.0
2017-Nov-18 12:30N 29°41' W 095°00'0 0.0
2017-Nov-18 12:00N 29°41' W 095°00'0 0.0
2017-Nov-18 11:30N 29°41' W 095°00'0 0.0
2017-Nov-18 11:00N 29°41' W 095°00'0 0.0
2017-Nov-18 10:30N 29°41' W 095°00'0 0.0
2017-Nov-18 10:00N 29°41' W 095°00'0 0.0
2017-Nov-18 09:30N 29°41' W 095°00'0 0.0
2017-Nov-18 09:00N 29°41' W 095°00'0 0.0
2017-Nov-18 08:28N 29°41' W 095°00'0 0.1
2017-Nov-18 08:00N 29°41' W 095°00'1 1.7
2017-Nov-18 07:30N 29°41' W 094°59'16 1.0
2017-Nov-17 15:23N 29°45' W 095°17'0 0.0
2017-Nov-17 15:00N 29°45' W 095°17'0 0.0
2017-Nov-17 14:30N 29°45' W 095°17'0 0.0
2017-Nov-17 14:00N 29°45' W 095°17'0 0.0
2017-Nov-17 13:31N 29°45' W 095°17'0 0.0
2017-Nov-17 12:59N 29°45' W 095°17'0 0.0
2017-Nov-17 12:30N 29°45' W 095°17'0 0.0
2017-Nov-17 12:00N 29°45' W 095°17'0 0.0
2017-Nov-17 11:30N 29°45' W 095°17'0 0.0
2017-Nov-17 11:00N 29°45' W 095°17'0 0.0
2017-Nov-17 10:30N 29°45' W 095°17'0 0.0
2017-Nov-17 10:00N 29°45' W 095°17'0 0.0
2017-Nov-17 09:30N 29°45' W 095°17'0 0.0
2017-Nov-17 08:57N 29°45' W 095°17'0 0.0
2017-Nov-17 08:30N 29°45' W 095°17'0 0.0
2017-Nov-17 08:00N 29°45' W 095°17'0 0.0
2017-Nov-17 07:30N 29°45' W 095°17'0 0.0
2017-Nov-17 07:00N 29°45' W 095°17'0 0.0
2017-Nov-17 06:30N 29°45' W 095°17'0 0.0
2017-Nov-17 06:00N 29°45' W 095°17'0 0.0
2017-Nov-17 05:30N 29°45' W 095°17'0 0.0
2017-Nov-17 05:00N 29°45' W 095°17'0 0.0
2017-Nov-17 04:30N 29°45' W 095°17'0 0.0
2017-Nov-17 04:00N 29°45' W 095°17'0 0.0
2017-Nov-17 03:30N 29°45' W 095°17'0 0.0
2017-Nov-17 03:00N 29°45' W 095°17'0 0.0
2017-Nov-17 02:30N 29°45' W 095°17'0 0.0
2017-Nov-17 01:56N 29°45' W 095°17'0 0.0
2017-Nov-17 01:28N 29°45' W 095°17'0 0.0
2017-Nov-17 01:00N 29°45' W 095°17'0 0.0
2017-Nov-17 00:30N 29°45' W 095°17'0 0.0
2017-Nov-17 00:01N 29°45' W 095°17'0 0.0
2017-Nov-16 23:30N 29°45' W 095°17'0 0.0
2017-Nov-16 23:00N 29°45' W 095°17'0 0.0
2017-Nov-16 22:30N 29°45' W 095°17'0 0.0
2017-Nov-16 21:59N 29°45' W 095°17'0 0.0
2017-Nov-16 21:30N 29°45' W 095°17'0 0.0
2017-Nov-16 21:01N 29°45' W 095°17'0 0.0
2017-Nov-16 20:30N 29°45' W 095°17'0 0.0
2017-Nov-16 20:01N 29°45' W 095°17'0 0.0
2017-Nov-16 19:30N 29°45' W 095°17'0 0.0
2017-Nov-16 19:00N 29°45' W 095°17'0 0.0
2017-Nov-16 18:30N 29°45' W 095°17'0 0.1
2017-Nov-16 18:00N 29°45' W 095°17'0 0.0
2017-Nov-16 11:29N 29°45' W 095°17'0 0.0
2017-Nov-16 10:59N 29°45' W 095°17'1 2.3
2017-Nov-16 10:28N 29°44' W 095°16'0 0.1
2017-Nov-16 10:00N 29°44' W 095°16'0 0.0
2017-Nov-16 09:30N 29°44' W 095°16'0 0.0
2017-Nov-16 09:00N 29°44' W 095°16'0 0.0
2017-Nov-16 08:29N 29°44' W 095°16'0 0.0
2017-Nov-16 08:00N 29°44' W 095°16'0 0.0
2017-Nov-16 07:30N 29°44' W 095°16'0 0.0
2017-Nov-16 07:00N 29°44' W 095°16'0 0.0
2017-Nov-16 06:30N 29°44' W 095°16'0 0.0
2017-Nov-16 06:01N 29°44' W 095°16'0 0.0
2017-Nov-16 05:30N 29°44' W 095°16'0 0.0
2017-Nov-16 05:00N 29°44' W 095°16'0 0.0
2017-Nov-16 04:30N 29°44' W 095°16'0 0.0
2017-Nov-16 04:00N 29°44' W 095°16'0 0.0
2017-Nov-16 03:30N 29°44' W 095°16'0 0.0
2017-Nov-16 03:00N 29°44' W 095°16'0 0.1
2017-Nov-15 23:28N 29°43' W 095°17'0 0.7
2017-Nov-15 23:00N 29°44' W 095°16'0 0.6
2017-Nov-15 22:30N 29°43' W 095°16'0 0.0
2017-Nov-15 21:56N 29°43' W 095°16'0 0.0
2017-Nov-15 21:26N 29°43' W 095°16'0 0.0
2017-Nov-15 20:59N 29°43' W 095°16'0 0.0
2017-Nov-15 20:30N 29°43' W 095°16'0 0.0
2017-Nov-15 20:00N 29°43' W 095°16'0 0.0
2017-Nov-15 19:30N 29°43' W 095°16'0 0.0
2017-Nov-15 19:00N 29°43' W 095°16'0 0.0
2017-Nov-15 18:26N 29°43' W 095°16'0 0.0
2017-Nov-15 17:39N 29°43' W 095°16'0 0.0
2017-Nov-15 17:29N 29°43' W 095°16'0 0.0
2017-Nov-15 16:53N 29°43' W 095°16'0 0.0
2017-Nov-15 16:26N 29°43' W 095°16'0 0.0
2017-Nov-15 15:48N 29°43' W 095°16'0 0.0
2017-Nov-15 15:29N 29°43' W 095°16'0 0.0
2017-Nov-15 14:45N 29°43' W 095°16'0 0.0
2017-Nov-15 14:29N 29°43' W 095°16'0 0.0
2017-Nov-15 13:03N 29°43' W 095°16'0 0.1
2017-Nov-15 12:57N 29°43' W 095°16'0 0.3
2017-Nov-15 12:26N 29°43' W 095°16'0 0.4
2017-Nov-15 12:00N 29°43' W 095°16'3 5.5
2017-Nov-15 11:30N 29°44' W 095°13'3 6.0
2017-Nov-15 10:59N 29°44' W 095°09'4 6.7
2017-Nov-15 10:27N 29°45' W 095°06'2 5.5
2017-Nov-15 10:00N 29°44' W 095°03'3 6.2
2017-Nov-15 09:30N 29°42' W 095°00'4 7.5
2017-Nov-15 09:00N 29°39' W 094°58'4 7.8
2017-Nov-15 08:30N 29°35' W 094°56'4 8.0
2017-Nov-15 08:00N 29°32' W 094°54'  
Track history (hours):
 
Tides and Currents Weather Stations Pressure Air Temp Water Temp Dewpoint Dewpoint Depression Visibility Wind Speed Wind Dir Waves Ship Positions

San Patricio

Owner: BUFFALO MARINE SERVICE INC, HOUSTON, TX. More information available from US FCC via Universal Licensing System and Coast Guard Vessel Documentation Center.

Last reported at 2017-Nov-23 18:21 UTC. Time now 2017-Nov-24 07:46 UTC.
Position N 29°32' W 094°54'.

Length 30 m; draft 3.1 m.

Type: Tug. MMSI: 366941830.

Date/timePositionNaut miles runAvg speedWind from/ knotsBaromVisibWave heightAir tempDewpointWater temp
2017-Nov-23 18:21N 29°32' W 094°54'3 7.6
2017-Nov-23 18:00N 29°34' W 094°55'4 7.4
2017-Nov-23 17:29N 29°37' W 094°58'4 7.6
2017-Nov-23 17:00N 29°41' W 094°59'1 2.1
2017-Nov-23 16:23N 29°41' W 095°00'0 0.0
2017-Nov-23 15:58N 29°41' W 095°00'0 0.0
2017-Nov-23 15:29N 29°41' W 095°00'0 0.0
2017-Nov-23 14:59N 29°41' W 095°00'0 0.0
2017-Nov-23 13:45N 29°41' W 095°00'0 0.0
2017-Nov-23 13:30N 29°41' W 095°00'0 0.0
2017-Nov-23 12:59N 29°41' W 095°00'1 2.4
2017-Nov-23 12:30N 29°41' W 094°59'5 7.0
2017-Nov-23 11:48N 29°44' W 095°03'3 0.3
2017-Nov-23 02:14N 29°46' W 095°06'  
2017-Nov-18 15:51N 29°44' W 095°03'2 6.5
2017-Nov-18 15:29N 29°43' W 095°01'2 5.1
2017-Nov-18 15:00N 29°41' W 094°60'0 0.7
2017-Nov-18 14:30N 29°41' W 095°00'0 0.0
2017-Nov-18 14:00N 29°41' W 095°00'0 0.0
2017-Nov-18 13:30N 29°41' W 095°00'0 0.0
2017-Nov-18 13:00N 29°41' W 095°00'0 0.0
2017-Nov-18 12:30N 29°41' W 095°00'0 0.0
2017-Nov-18 12:00N 29°41' W 095°00'0 0.0
2017-Nov-18 11:30N 29°41' W 095°00'0 0.0
2017-Nov-18 11:00N 29°41' W 095°00'0 0.0
2017-Nov-18 10:30N 29°41' W 095°00'0 0.0
2017-Nov-18 10:00N 29°41' W 095°00'0 0.0
2017-Nov-18 09:30N 29°41' W 095°00'0 0.0
2017-Nov-18 09:00N 29°41' W 095°00'0 0.0
2017-Nov-18 08:28N 29°41' W 095°00'0 0.1
2017-Nov-18 08:00N 29°41' W 095°00'1 1.7
2017-Nov-18 07:30N 29°41' W 094°59'16 1.0
2017-Nov-17 15:23N 29°45' W 095°17'0 0.0
2017-Nov-17 15:00N 29°45' W 095°17'0 0.0
2017-Nov-17 14:30N 29°45' W 095°17'0 0.0
2017-Nov-17 14:00N 29°45' W 095°17'0 0.0
2017-Nov-17 13:31N 29°45' W 095°17'0 0.0
2017-Nov-17 12:59N 29°45' W 095°17'0 0.0
2017-Nov-17 12:30N 29°45' W 095°17'0 0.0
2017-Nov-17 12:00N 29°45' W 095°17'0 0.0
2017-Nov-17 11:30N 29°45' W 095°17'0 0.0
2017-Nov-17 11:00N 29°45' W 095°17'0 0.0
2017-Nov-17 10:30N 29°45' W 095°17'0 0.0
2017-Nov-17 10:00N 29°45' W 095°17'0 0.0
2017-Nov-17 09:30N 29°45' W 095°17'0 0.0
2017-Nov-17 08:57N 29°45' W 095°17'0 0.0
2017-Nov-17 08:30N 29°45' W 095°17'0 0.0
2017-Nov-17 08:00N 29°45' W 095°17'0 0.0
2017-Nov-17 07:30N 29°45' W 095°17'0 0.0
2017-Nov-17 07:00N 29°45' W 095°17'0 0.0
2017-Nov-17 06:30N 29°45' W 095°17'0 0.0
2017-Nov-17 06:00N 29°45' W 095°17'0 0.0
2017-Nov-17 05:30N 29°45' W 095°17'0 0.0
2017-Nov-17 05:00N 29°45' W 095°17'0 0.0
2017-Nov-17 04:30N 29°45' W 095°17'0 0.0
2017-Nov-17 04:00N 29°45' W 095°17'0 0.0
2017-Nov-17 03:30N 29°45' W 095°17'0 0.0
2017-Nov-17 03:00N 29°45' W 095°17'0 0.0
2017-Nov-17 02:30N 29°45' W 095°17'0 0.0
2017-Nov-17 01:56N 29°45' W 095°17'0 0.0
2017-Nov-17 01:28N 29°45' W 095°17'0 0.0
2017-Nov-17 01:00N 29°45' W 095°17'0 0.0
2017-Nov-17 00:30N 29°45' W 095°17'0 0.0
2017-Nov-17 00:01N 29°45' W 095°17'0 0.0
2017-Nov-16 23:30N 29°45' W 095°17'0 0.0
2017-Nov-16 23:00N 29°45' W 095°17'0 0.0
2017-Nov-16 22:30N 29°45' W 095°17'0 0.0
2017-Nov-16 21:59N 29°45' W 095°17'0 0.0
2017-Nov-16 21:30N 29°45' W 095°17'0 0.0
2017-Nov-16 21:01N 29°45' W 095°17'0 0.0
2017-Nov-16 20:30N 29°45' W 095°17'0 0.0
2017-Nov-16 20:01N 29°45' W 095°17'0 0.0
2017-Nov-16 19:30N 29°45' W 095°17'0 0.0
2017-Nov-16 19:00N 29°45' W 095°17'0 0.0
2017-Nov-16 18:30N 29°45' W 095°17'0 0.1
2017-Nov-16 18:00N 29°45' W 095°17'0 0.0
2017-Nov-16 11:29N 29°45' W 095°17'0 0.0
2017-Nov-16 10:59N 29°45' W 095°17'1 2.3
2017-Nov-16 10:28N 29°44' W 095°16'0 0.1
2017-Nov-16 10:00N 29°44' W 095°16'0 0.0
2017-Nov-16 09:30N 29°44' W 095°16'0 0.0
2017-Nov-16 09:00N 29°44' W 095°16'0 0.0
2017-Nov-16 08:29N 29°44' W 095°16'0 0.0
2017-Nov-16 08:00N 29°44' W 095°16'0 0.0
2017-Nov-16 07:30N 29°44' W 095°16'0 0.0
2017-Nov-16 07:00N 29°44' W 095°16'0 0.0
2017-Nov-16 06:30N 29°44' W 095°16'0 0.0
2017-Nov-16 06:01N 29°44' W 095°16'0 0.0
2017-Nov-16 05:30N 29°44' W 095°16'0 0.0
2017-Nov-16 05:00N 29°44' W 095°16'0 0.0
2017-Nov-16 04:30N 29°44' W 095°16'0 0.0
2017-Nov-16 04:00N 29°44' W 095°16'0 0.0
2017-Nov-16 03:30N 29°44' W 095°16'0 0.0
2017-Nov-16 03:00N 29°44' W 095°16'0 0.1
2017-Nov-15 23:28N 29°43' W 095°17'0 0.7
2017-Nov-15 23:00N 29°44' W 095°16'0 0.6
2017-Nov-15 22:30N 29°43' W 095°16'0 0.0
2017-Nov-15 21:56N 29°43' W 095°16'0 0.0
2017-Nov-15 21:26N 29°43' W 095°16'0 0.0
2017-Nov-15 20:59N 29°43' W 095°16'0 0.0
2017-Nov-15 20:30N 29°43' W 095°16'0 0.0
2017-Nov-15 20:00N 29°43' W 095°16'0 0.0
2017-Nov-15 19:30N 29°43' W 095°16'0 0.0
2017-Nov-15 19:00N 29°43' W 095°16'0 0.0
2017-Nov-15 18:26N 29°43' W 095°16'0 0.0
2017-Nov-15 17:39N 29°43' W 095°16'0 0.0
2017-Nov-15 17:29N 29°43' W 095°16'0 0.0
2017-Nov-15 16:53N 29°43' W 095°16'0 0.0
2017-Nov-15 16:26N 29°43' W 095°16'0 0.0
2017-Nov-15 15:48N 29°43' W 095°16'0 0.0
2017-Nov-15 15:29N 29°43' W 095°16'0 0.0
2017-Nov-15 14:45N 29°43' W 095°16'0 0.0
2017-Nov-15 14:29N 29°43' W 095°16'0 0.0
2017-Nov-15 13:03N 29°43' W 095°16'0 0.1
2017-Nov-15 12:57N 29°43' W 095°16'0 0.3
2017-Nov-15 12:26N 29°43' W 095°16'0 0.4
2017-Nov-15 12:00N 29°43' W 095°16'3 5.5
2017-Nov-15 11:30N 29°44' W 095°13'3 6.0
2017-Nov-15 10:59N 29°44' W 095°09'4 6.7
2017-Nov-15 10:27N 29°45' W 095°06'2 5.5
2017-Nov-15 10:00N 29°44' W 095°03'3 6.2
2017-Nov-15 09:30N 29°42' W 095°00'4 7.5
2017-Nov-15 09:00N 29°39' W 094°58'4 7.8
2017-Nov-15 08:30N 29°35' W 094°56'4 8.0
2017-Nov-15 08:00N 29°32' W 094°54'  

Dump ship's entire track history